AUA313 LOWW-ENBR
Flight info
| Callsign | AUA313 |
|---|---|
| Flight time | N/A |
| Altitude | 34000 |
| Route | LANUX DCT VLM DCT HDO DCT GITER DCT BADAB |
| Aircraft | A321/M-SDE3FGHIRWY/LB1 |
Departure
| Time | 2026-04-20 17:25 |
|---|---|
| Airport | Vienna International Airport (LOWW) |
Arrival
| Time | N/A |
|---|---|
| Airport | Bergen Airport, Flesland (ENBR) |
| Time | Latitude | Longitude | Altitude | Speed | Heading |
|---|---|---|---|---|---|
| 2026-04-20 17:07 | 48.11929 | 16.56652 | 598 ft | 0 kts | 211° |
| 2026-04-20 17:15 | 48.11940 | 16.56661 | 597 ft | 3 kts | 210° |
| 2026-04-20 17:15 | 48.11958 | 16.56676 | 596 ft | 3 kts | 209° |
| 2026-04-20 17:15 | 48.11975 | 16.56691 | 596 ft | 3 kts | 206° |
| 2026-04-20 17:15 | 48.11993 | 16.56704 | 595 ft | 3 kts | 206° |
| 2026-04-20 17:16 | 48.11998 | 16.56708 | 595 ft | 1 kts | 206° |
| 2026-04-20 17:19 | 48.11993 | 16.56713 | 595 ft | 2 kts | 145° |
| 2026-04-20 17:19 | 48.11977 | 16.56780 | 596 ft | 8 kts | 113° |
| 2026-04-20 17:19 | 48.11965 | 16.56825 | 597 ft | 2 kts | 114° |
| 2026-04-20 17:19 | 48.11963 | 16.56828 | 597 ft | 1 kts | 114° |
| 2026-04-20 17:20 | 48.11955 | 16.56857 | 598 ft | 5 kts | 113° |
| 2026-04-20 17:20 | 48.11936 | 16.56925 | 599 ft | 9 kts | 112° |
| 2026-04-20 17:20 | 48.11905 | 16.57036 | 601 ft | 14 kts | 116° |
| 2026-04-20 17:20 | 48.11860 | 16.57177 | 604 ft | 15 kts | 115° |
| 2026-04-20 17:21 | 48.11826 | 16.57293 | 610 ft | 10 kts | 112° |
| 2026-04-20 17:21 | 48.11797 | 16.57349 | 615 ft | 6 kts | 149° |
| 2026-04-20 17:21 | 48.11730 | 16.57386 | 615 ft | 14 kts | 161° |
| 2026-04-20 17:21 | 48.11610 | 16.57450 | 617 ft | 22 kts | 161° |
| 2026-04-20 17:22 | 48.11469 | 16.57444 | 607 ft | 18 kts | 201° |
| 2026-04-20 17:22 | 48.11371 | 16.57384 | 611 ft | 13 kts | 203° |
| 2026-04-20 17:22 | 48.11300 | 16.57340 | 619 ft | 10 kts | 202° |
| 2026-04-20 17:22 | 48.11241 | 16.57306 | 616 ft | 8 kts | 191° |
| 2026-04-20 17:23 | 48.11199 | 16.57338 | 613 ft | 9 kts | 130° |
| 2026-04-20 17:23 | 48.11149 | 16.57460 | 603 ft | 20 kts | 121° |
| 2026-04-20 17:23 | 48.11064 | 16.57633 | 603 ft | 19 kts | 168° |
| 2026-04-20 17:23 | 48.10945 | 16.57576 | 617 ft | 17 kts | 215° |
| 2026-04-20 17:24 | 48.10934 | 16.57472 | 615 ft | 0 kts | 297° |
| 2026-04-20 17:24 | 48.10944 | 16.57442 | 612 ft | 15 kts | 297° |
| 2026-04-20 17:24 | 48.11117 | 16.56914 | 620 ft | 94 kts | 295° |
| 2026-04-20 17:24 | 48.11493 | 16.55751 | 611 ft | 153 kts | 295° |
| 2026-04-20 17:25 | 48.11975 | 16.54216 | 1108 ft | 165 kts | 297° |
| 2026-04-20 17:25 | 48.12348 | 16.52589 | 1922 ft | 170 kts | 275° |
| 2026-04-20 17:25 | 48.12244 | 16.50721 | 2399 ft | 192 kts | 264° |
| 2026-04-20 17:25 | 48.11970 | 16.48635 | 2823 ft | 214 kts | 262° |
| 2026-04-20 17:26 | 48.11818 | 16.46359 | 3025 ft | 233 kts | 276° |
| 2026-04-20 17:26 | 48.11972 | 16.43826 | 3345 ft | 251 kts | 280° |
| 2026-04-20 17:26 | 48.12209 | 16.41205 | 4041 ft | 255 kts | 281° |
| 2026-04-20 17:26 | 48.12477 | 16.38565 | 4810 ft | 257 kts | 281° |
| 2026-04-20 17:27 | 48.12752 | 16.35946 | 5597 ft | 257 kts | 281° |
| 2026-04-20 17:27 | 48.13031 | 16.33302 | 6417 ft | 257 kts | 280° |
| 2026-04-20 17:27 | 48.13312 | 16.30655 | 7174 ft | 257 kts | 280° |
| 2026-04-20 17:27 | 48.13592 | 16.27997 | 7904 ft | 258 kts | 279° |
| 2026-04-20 17:28 | 48.13871 | 16.25336 | 8623 ft | 260 kts | 280° |
| 2026-04-20 17:28 | 48.14435 | 16.22769 | 9314 ft | 262 kts | 298° |
| 2026-04-20 17:28 | 48.15622 | 16.20696 | 9998 ft | 268 kts | 321° |
| 2026-04-20 17:28 | 48.17227 | 16.19295 | 10605 ft | 272 kts | 328° |
| 2026-04-20 17:29 | 48.18911 | 16.17949 | 11244 ft | 274 kts | 328° |
| 2026-04-20 17:29 | 48.20636 | 16.16582 | 11597 ft | 289 kts | 328° |
| 2026-04-20 17:29 | 48.22468 | 16.15125 | 11733 ft | 308 kts | 328° |
| 2026-04-20 17:29 | 48.24423 | 16.13568 | 11870 ft | 326 kts | 328° |
| 2026-04-20 17:30 | 48.26478 | 16.11931 | 12006 ft | 343 kts | 329° |
| 2026-04-20 17:30 | 48.28644 | 16.10205 | 12147 ft | 360 kts | 329° |
| 2026-04-20 17:30 | 48.30875 | 16.08429 | 12276 ft | 373 kts | 329° |
| 2026-04-20 17:30 | 48.33213 | 16.06569 | 12413 ft | 385 kts | 329° |
| 2026-04-20 17:31 | 48.35605 | 16.04662 | 12679 ft | 390 kts | 329° |
| 2026-04-20 17:31 | 48.38018 | 16.02737 | 13050 ft | 393 kts | 329° |
| 2026-04-20 17:31 | 48.40414 | 16.00821 | 13432 ft | 396 kts | 329° |
| 2026-04-20 17:31 | 48.42855 | 15.98864 | 13839 ft | 398 kts | 329° |
| 2026-04-20 17:32 | 48.45302 | 15.96895 | 14203 ft | 400 kts | 329° |
| 2026-04-20 17:32 | 48.47768 | 15.94907 | 14582 ft | 402 kts | 329° |
| 2026-04-20 17:32 | 48.50247 | 15.92910 | 14961 ft | 404 kts | 329° |
| 2026-04-20 17:32 | 48.52713 | 15.90925 | 15337 ft | 406 kts | 329° |
| 2026-04-20 17:33 | 48.55221 | 15.88905 | 15727 ft | 408 kts | 329° |
| 2026-04-20 17:33 | 48.57739 | 15.86871 | 16119 ft | 411 kts | 329° |
| 2026-04-20 17:33 | 48.60241 | 15.84848 | 16511 ft | 413 kts | 329° |
| 2026-04-20 17:33 | 48.62793 | 15.82782 | 16909 ft | 415 kts | 329° |
| 2026-04-20 17:34 | 48.65351 | 15.80706 | 17307 ft | 418 kts | 329° |
| 2026-04-20 17:34 | 48.67898 | 15.78635 | 17684 ft | 420 kts | 329° |
| 2026-04-20 17:34 | 48.70482 | 15.76539 | 18063 ft | 423 kts | 329° |
| 2026-04-20 17:34 | 48.73083 | 15.74427 | 18408 ft | 425 kts | 329° |
| 2026-04-20 17:35 | 48.75699 | 15.72300 | 18750 ft | 427 kts | 329° |
| 2026-04-20 17:35 | 48.78329 | 15.70158 | 19092 ft | 429 kts | 329° |
| 2026-04-20 17:35 | 48.80933 | 15.68034 | 19440 ft | 431 kts | 329° |
| 2026-04-20 17:35 | 48.83592 | 15.65864 | 19779 ft | 432 kts | 329° |
| 2026-04-20 17:36 | 48.86255 | 15.63689 | 20124 ft | 434 kts | 329° |
| 2026-04-20 17:36 | 48.88897 | 15.61533 | 20466 ft | 436 kts | 329° |
| 2026-04-20 17:36 | 48.91626 | 15.59477 | 20789 ft | 439 kts | 332° |
| 2026-04-20 17:36 | 48.94427 | 15.57566 | 21000 ft | 441 kts | 334° |
| 2026-04-20 17:37 | 48.97257 | 15.55754 | 21034 ft | 441 kts | 334° |
| 2026-04-20 17:37 | 49.00110 | 15.53968 | 21041 ft | 441 kts | 335° |
| 2026-04-20 17:37 | 49.02921 | 15.52199 | 21036 ft | 441 kts | 334° |
| 2026-04-20 17:37 | 49.05748 | 15.50382 | 21038 ft | 441 kts | 334° |
| 2026-04-20 17:38 | 49.08577 | 15.48522 | 21048 ft | 441 kts | 334° |
| 2026-04-20 17:38 | 49.11394 | 15.46641 | 21047 ft | 441 kts | 333° |
| 2026-04-20 17:38 | 49.14178 | 15.44766 | 21090 ft | 443 kts | 333° |
| 2026-04-20 17:38 | 49.17003 | 15.42856 | 21450 ft | 444 kts | 333° |
| 2026-04-20 17:39 | 49.19839 | 15.40938 | 21786 ft | 446 kts | 333° |
| 2026-04-20 17:39 | 49.22685 | 15.39017 | 22093 ft | 447 kts | 333° |
| 2026-04-20 17:39 | 49.25518 | 15.37112 | 22372 ft | 449 kts | 333° |
| 2026-04-20 17:39 | 49.28389 | 15.35185 | 22639 ft | 451 kts | 333° |
| 2026-04-20 17:40 | 49.31271 | 15.33253 | 22903 ft | 452 kts | 333° |
| 2026-04-20 17:40 | 49.34163 | 15.31311 | 23128 ft | 453 kts | 333° |
| 2026-04-20 17:40 | 49.37066 | 15.29361 | 23346 ft | 455 kts | 333° |
| 2026-04-20 17:40 | 49.39948 | 15.27419 | 23555 ft | 456 kts | 333° |
| 2026-04-20 17:41 | 49.42862 | 15.25452 | 23729 ft | 457 kts | 333° |
| 2026-04-20 17:41 | 49.45781 | 15.23477 | 23880 ft | 459 kts | 334° |
| 2026-04-20 17:41 | 49.47717 | 15.22167 | 23982 ft | 459 kts | 334° |
| 2026-04-20 17:41 | 49.50643 | 15.20183 | 24128 ft | 460 kts | 334° |
| 2026-04-20 17:42 | 49.54536 | 15.17535 | 24322 ft | 461 kts | 334° |
| 2026-04-20 17:42 | 49.57471 | 15.15534 | 24524 ft | 460 kts | 334° |
| 2026-04-20 17:42 | 49.59410 | 15.14212 | 24657 ft | 460 kts | 334° |
| 2026-04-20 17:42 | 49.62343 | 15.12212 | 24845 ft | 459 kts | 334° |
| 2026-04-20 17:43 | 49.65265 | 15.10215 | 25022 ft | 459 kts | 334° |
| 2026-04-20 17:43 | 49.69141 | 15.07561 | 25267 ft | 459 kts | 334° |
| 2026-04-20 17:43 | 49.71123 | 15.06223 | 25390 ft | 459 kts | 335° |
| 2026-04-20 17:43 | 49.74053 | 15.04405 | 25561 ft | 459 kts | 337° |
| 2026-04-20 17:44 | 49.77073 | 15.02703 | 25760 ft | 460 kts | 339° |
| 2026-04-20 17:44 | 49.80109 | 15.01093 | 25929 ft | 460 kts | 340° |
| 2026-04-20 17:44 | 49.83140 | 14.99512 | 26119 ft | 460 kts | 340° |
| 2026-04-20 17:44 | 49.86168 | 14.97911 | 26308 ft | 459 kts | 339° |
| 2026-04-20 17:45 | 49.89155 | 14.96294 | 26489 ft | 459 kts | 339° |
| 2026-04-20 17:45 | 49.92162 | 14.94628 | 26665 ft | 459 kts | 339° |
| 2026-04-20 17:45 | 49.95173 | 14.92933 | 26842 ft | 459 kts | 339° |
| 2026-04-20 17:45 | 49.98177 | 14.91224 | 27011 ft | 459 kts | 339° |
| 2026-04-20 17:46 | 50.01186 | 14.89510 | 27192 ft | 459 kts | 339° |
| 2026-04-20 17:46 | 50.04150 | 14.87827 | 27358 ft | 459 kts | 339° |
| 2026-04-20 17:46 | 50.07159 | 14.86124 | 27540 ft | 459 kts | 339° |
| 2026-04-20 17:46 | 50.10174 | 14.84424 | 27708 ft | 459 kts | 340° |
| 2026-04-20 17:47 | 50.13188 | 14.82723 | 27869 ft | 459 kts | 340° |
| 2026-04-20 17:47 | 50.16194 | 14.81023 | 28037 ft | 459 kts | 340° |
| 2026-04-20 17:47 | 50.19161 | 14.79343 | 28201 ft | 459 kts | 340° |
| 2026-04-20 17:47 | 50.22166 | 14.77641 | 28379 ft | 459 kts | 340° |
| 2026-04-20 17:48 | 50.25181 | 14.75930 | 28556 ft | 459 kts | 340° |
| 2026-04-20 17:48 | 50.28146 | 14.74245 | 28725 ft | 458 kts | 340° |
| 2026-04-20 17:48 | 50.31146 | 14.72534 | 28899 ft | 458 kts | 340° |
| 2026-04-20 17:48 | 50.34181 | 14.70799 | 29082 ft | 458 kts | 340° |
| 2026-04-20 17:49 | 50.37141 | 14.69104 | 29255 ft | 457 kts | 340° |
| 2026-04-20 17:49 | 50.40134 | 14.67394 | 29433 ft | 457 kts | 341° |
| 2026-04-20 17:49 | 50.43124 | 14.65685 | 29625 ft | 456 kts | 341° |
| 2026-04-20 17:49 | 50.46103 | 14.63978 | 29790 ft | 456 kts | 341° |
| 2026-04-20 17:50 | 50.49084 | 14.62264 | 29983 ft | 455 kts | 341° |
| 2026-04-20 17:50 | 50.52029 | 14.60568 | 30148 ft | 455 kts | 341° |
| 2026-04-20 17:50 | 50.55008 | 14.58854 | 30313 ft | 454 kts | 341° |
| 2026-04-20 17:50 | 50.57981 | 14.57138 | 30449 ft | 454 kts | 341° |
| 2026-04-20 17:51 | 50.60909 | 14.55444 | 30588 ft | 453 kts | 341° |
| 2026-04-20 17:51 | 50.63882 | 14.53722 | 30724 ft | 453 kts | 341° |
| 2026-04-20 17:51 | 50.66848 | 14.52003 | 30856 ft | 453 kts | 341° |
| 2026-04-20 17:51 | 50.69810 | 14.50286 | 31005 ft | 453 kts | 341° |
| 2026-04-20 17:52 | 50.72741 | 14.48590 | 31145 ft | 453 kts | 341° |
| 2026-04-20 17:52 | 50.75701 | 14.46874 | 31279 ft | 453 kts | 341° |
| 2026-04-20 17:52 | 50.78664 | 14.45156 | 31418 ft | 453 kts | 341° |
| 2026-04-20 17:52 | 50.81636 | 14.43431 | 31559 ft | 453 kts | 341° |
| 2026-04-20 17:53 | 50.84594 | 14.41710 | 31698 ft | 453 kts | 341° |
| 2026-04-20 17:53 | 50.87513 | 14.40002 | 31828 ft | 453 kts | 340° |
| 2026-04-20 17:53 | 50.90474 | 14.38261 | 31957 ft | 453 kts | 340° |
| 2026-04-20 17:53 | 50.93406 | 14.36392 | 32093 ft | 453 kts | 335° |
| 2026-04-20 17:54 | 50.96215 | 14.34100 | 32217 ft | 454 kts | 333° |
| 2026-04-20 17:54 | 50.98978 | 14.31817 | 32345 ft | 454 kts | 333° |
| 2026-04-20 17:54 | 51.01779 | 14.29502 | 32477 ft | 454 kts | 333° |
| 2026-04-20 17:54 | 51.04592 | 14.27178 | 32594 ft | 454 kts | 333° |
| 2026-04-20 17:55 | 51.07401 | 14.24855 | 32733 ft | 454 kts | 333° |
| 2026-04-20 17:55 | 51.10174 | 14.22559 | 32864 ft | 454 kts | 333° |
| 2026-04-20 17:55 | 51.12977 | 14.20235 | 32989 ft | 454 kts | 333° |
| 2026-04-20 17:55 | 51.15783 | 14.17899 | 33135 ft | 454 kts | 333° |
| 2026-04-20 17:56 | 51.18591 | 14.15559 | 33260 ft | 454 kts | 333° |
| 2026-04-20 17:56 | 51.21399 | 14.13220 | 33396 ft | 454 kts | 333° |
| 2026-04-20 17:56 | 51.24169 | 14.10908 | 33530 ft | 454 kts | 333° |
| 2026-04-20 17:56 | 51.26975 | 14.08560 | 33667 ft | 454 kts | 333° |
| 2026-04-20 17:57 | 51.29780 | 14.06212 | 33804 ft | 454 kts | 333° |
| 2026-04-20 17:57 | 51.32581 | 14.03863 | 33974 ft | 453 kts | 333° |
| 2026-04-20 17:57 | 51.35371 | 14.01521 | 34045 ft | 454 kts | 333° |
| 2026-04-20 17:58 | 51.40955 | 13.96826 | 34053 ft | 455 kts | 333° |
| 2026-04-20 17:58 | 51.46569 | 13.92089 | 34056 ft | 455 kts | 333° |
| 2026-04-20 17:59 | 51.52158 | 13.87366 | 34054 ft | 455 kts | 333° |
| 2026-04-20 17:59 | 51.57760 | 13.82616 | 34056 ft | 455 kts | 333° |
| 2026-04-20 18:00 | 51.63366 | 13.77845 | 34065 ft | 455 kts | 333° |
| 2026-04-20 18:00 | 51.68944 | 13.73093 | 34066 ft | 455 kts | 333° |
| 2026-04-20 18:01 | 51.74545 | 13.68302 | 34074 ft | 455 kts | 333° |
| 2026-04-20 18:01 | 51.80113 | 13.63521 | 34087 ft | 455 kts | 333° |
| 2026-04-20 18:02 | 51.85710 | 13.58706 | 34102 ft | 455 kts | 333° |
| 2026-04-20 18:02 | 51.91314 | 13.53875 | 34098 ft | 456 kts | 333° |
| 2026-04-20 18:03 | 51.96894 | 13.49059 | 34104 ft | 456 kts | 333° |
| 2026-04-20 18:03 | 52.02489 | 13.44202 | 34110 ft | 456 kts | 333° |
| 2026-04-20 18:04 | 52.08093 | 13.39318 | 34121 ft | 457 kts | 333° |
| 2026-04-20 18:04 | 52.13681 | 13.34440 | 34128 ft | 457 kts | 333° |
| 2026-04-20 18:05 | 52.22062 | 13.27097 | 34135 ft | 457 kts | 333° |
| 2026-04-20 18:05 | 52.27668 | 13.22162 | 34140 ft | 457 kts | 333° |
| 2026-04-20 18:06 | 52.33238 | 13.17255 | 34138 ft | 457 kts | 333° |
| 2026-04-20 18:06 | 52.38844 | 13.12309 | 34137 ft | 457 kts | 333° |
| 2026-04-20 18:07 | 52.44456 | 13.07327 | 34131 ft | 458 kts | 333° |
| 2026-04-20 18:07 | 52.50037 | 13.02372 | 34127 ft | 458 kts | 333° |
| 2026-04-20 18:08 | 52.55609 | 12.97401 | 34130 ft | 458 kts | 333° |
| 2026-04-20 18:08 | 52.61219 | 12.92382 | 34127 ft | 458 kts | 333° |